Time;durP1;ratioP1;P1;durP2;ratioP2;P2;SDS_P1;SDS_P2;PMS_P1;PMS_P2;Temp;Humidity;BMP_temperature;BMP_pressure;BME280_temperature;BME280_humidity;BME280_pressure;Samples;Min_cycle;Max_cycle;Signal;HPM_P1;HPM_P2
2022/05/08 00:01:59;;;;;;;4.83;2.92;;;;;;;;;;1727661;83;21093;-74
2022/05/08 00:04:25;;;;;;;7.83;3.27;;;;;;;;;;1731343;82;20995;-74
2022/05/08 00:06:51;;;;;;;4.80;2.70;;;;;;;;;;1728006;83;21072;-73
2022/05/08 00:09:18;;;;;;;4.20;2.80;;;;;;;;;;1730383;83;21019;-74
2022/05/08 00:11:44;;;;;;;4.62;2.80;;;;;;;;;;1730768;82;21062;-74
2022/05/08 00:14:10;;;;;;;6.03;2.85;;;;;;;;;;1727163;83;20973;-73
2022/05/08 00:16:37;;;;;;;4.92;2.55;;;;;;;;;;1726722;83;21601;-74
2022/05/08 00:19:02;;;;;;;5.03;3.02;;;;;;;;;;1730771;83;21551;-74
2022/05/08 00:21:29;;;;;;;4.40;2.98;;;;;;;;;;1729901;83;21019;-72
2022/05/08 00:23:55;;;;;;;4.28;2.70;;;;;;;;;;1729261;83;21080;-72
2022/05/08 00:26:21;;;;;;;7.30;2.70;;;;;;;;;;1725875;83;21619;-72
2022/05/08 00:28:50;;;;;;;5.35;2.83;;;;;;;;;;1728905;83;21065;-72
2022/05/08 00:31:16;;;;;;;4.28;2.55;;;;;;;;;;1704301;83;21032;-72
2022/05/08 00:33:42;;;;;;;7.15;2.60;;;;;;;;;;1725695;83;21068;-72
2022/05/08 00:36:08;;;;;;;4.50;3.02;;;;;;;;;;1730398;83;21159;-72
2022/05/08 00:38:34;;;;;;;5.12;2.98;;;;;;;;;;1731026;83;21510;-72
2022/05/08 00:41:01;;;;;;;4.10;2.25;;;;;;;;;;1730939;83;21077;-72
2022/05/08 00:43:31;;;;;;;4.67;2.40;;;;;;;;;;1711048;83;21138;-72
2022/05/08 00:45:57;;;;;;;3.47;2.62;;;;;;;;;;1725824;83;21020;-72
2022/05/08 00:48:23;;;;;;;5.33;2.70;;;;;;;;;;1730725;83;21550;-72
2022/05/08 00:50:50;;;;;;;5.87;2.58;;;;;;;;;;1730849;82;21070;-72
2022/05/08 00:53:17;;;;;;;4.00;2.60;;;;;;;;;;1725874;83;21036;-72
2022/05/08 00:55:44;;;;;;;2.80;2.17;;;;;;;;;;1726348;83;21122;-72
2022/05/08 00:58:10;;;;;;;5.03;3.22;;;;;;;;;;1730837;83;21054;-72
2022/05/08 01:03:45;;;;;;;6.45;3.12;;;;;;;;;;1705582;79;21177;-72
2022/05/08 01:06:12;;;;;;;4.85;3.00;;;;;;;;;;1680514;84;21129;-72
2022/05/08 01:08:42;;;;;;;4.85;2.83;;;;;;;;;;1696530;84;21029;-72
2022/05/08 01:11:08;;;;;;;5.83;2.47;;;;;;;;;;1696995;84;21059;-72
2022/05/08 01:13:35;;;;;;;3.83;2.47;;;;;;;;;;1697075;84;21024;-72
2022/05/08 01:16:02;;;;;;;5.05;2.80;;;;;;;;;;1697047;84;21021;-72
2022/05/08 01:18:28;;;;;;;3.47;2.70;;;;;;;;;;1696658;84;21020;-72
2022/05/08 01:20:55;;;;;;;4.15;2.40;;;;;;;;;;1696958;84;21036;-72
2022/05/08 01:23:23;;;;;;;9.83;2.70;;;;;;;;;;1697008;84;21032;-72
2022/05/08 01:25:53;;;;;;;4.03;2.50;;;;;;;;;;1696982;84;21020;-72
2022/05/08 01:28:19;;;;;;;6.08;2.70;;;;;;;;;;1696886;84;21040;-72
2022/05/08 01:30:46;;;;;;;4.65;2.60;;;;;;;;;;1697005;84;21032;-72
2022/05/08 01:33:12;;;;;;;4.00;2.65;;;;;;;;;;1697067;84;21040;-72
2022/05/08 01:35:38;;;;;;;4.53;2.40;;;;;;;;;;1696972;84;21044;-72
2022/05/08 01:38:05;;;;;;;4.78;2.70;;;;;;;;;;1697245;84;21060;-72
2022/05/08 01:40:33;;;;;;;4.95;2.60;;;;;;;;;;1696479;84;21044;-72
2022/05/08 01:43:01;;;;;;;4.35;2.60;;;;;;;;;;1697243;84;21043;-72
2022/05/08 01:45:27;;;;;;;4.78;2.90;;;;;;;;;;1697071;84;21136;-71
2022/05/08 01:50:38;;;;;;;3.72;2.30;;;;;;;;;;1697768;84;21059;-72
2022/05/08 01:53:04;;;;;;;5.55;2.75;;;;;;;;;;1697132;84;20984;-72
2022/05/08 01:55:30;;;;;;;5.08;2.67;;;;;;;;;;1697079;84;21012;-71
2022/05/08 01:57:57;;;;;;;5.10;2.58;;;;;;;;;;1696784;84;21016;-72
2022/05/08 02:00:23;;;;;;;4.85;2.58;;;;;;;;;;1696973;84;21627;-72
2022/05/08 02:02:49;;;;;;;5.17;2.37;;;;;;;;;;1697061;84;21044;-72
2022/05/08 02:05:17;;;;;;;5.25;2.40;;;;;;;;;;1732854;82;21569;-72
2022/05/08 02:07:45;;;;;;;3.67;2.58;;;;;;;;;;1710519;83;20999;-72
2022/05/08 02:10:13;;;;;;;5.15;2.90;;;;;;;;;;1735847;83;21039;-72
2022/05/08 02:12:39;;;;;;;5.37;2.70;;;;;;;;;;1736067;83;21452;-72
2022/05/08 02:15:05;;;;;;;5.62;2.40;;;;;;;;;;1736006;83;21612;-72
2022/05/08 02:17:32;;;;;;;5.08;2.60;;;;;;;;;;1736077;83;21040;-72
2022/05/08 02:19:59;;;;;;;4.22;2.58;;;;;;;;;;1736086;83;21037;-71
2022/05/08 02:22:25;;;;;;;5.17;2.50;;;;;;;;;;1736077;83;21024;-71
2022/05/08 02:24:52;;;;;;;5.95;2.70;;;;;;;;;;1735831;81;21587;-71
2022/05/08 02:27:18;;;;;;;5.97;2.50;;;;;;;;;;1735990;83;21036;-71
2022/05/08 02:29:48;;;;;;;3.90;2.60;;;;;;;;;;1736037;83;21043;-71
2022/05/08 02:32:14;;;;;;;4.25;2.47;;;;;;;;;;1735967;83;21023;-72
2022/05/08 02:34:41;;;;;;;3.92;2.40;;;;;;;;;;1735863;83;21626;-72
2022/05/08 02:37:07;;;;;;;4.30;2.52;;;;;;;;;;1735922;83;21023;-72
2022/05/08 02:39:33;;;;;;;5.58;2.70;;;;;;;;;;1735765;83;21086;-72
2022/05/08 02:41:59;;;;;;;7.90;2.90;;;;;;;;;;1735861;83;21038;-72
2022/05/08 02:44:25;;;;;;;6.40;2.77;;;;;;;;;;1735910;83;21046;-72
2022/05/08 02:46:53;;;;;;;4.53;2.60;;;;;;;;;;1735680;83;21044;-71
2022/05/08 02:49:18;;;;;;;6.12;2.62;;;;;;;;;;1734701;83;21140;-72
2022/05/08 02:51:44;;;;;;;3.85;2.58;;;;;;;;;;1736231;83;21054;-72
2022/05/08 02:54:10;;;;;;;6.12;2.87;;;;;;;;;;1736388;83;21022;-74
2022/05/08 02:59:22;;;;;;;4.45;2.70;;;;;;;;;;1736293;83;21482;-73
2022/05/08 03:01:48;;;;;;;4.60;2.72;;;;;;;;;;1736225;83;21045;-73
2022/05/08 03:04:16;;;;;;;5.87;2.80;;;;;;;;;;1731541;83;21643;-72
2022/05/08 03:06:43;;;;;;;5.12;2.62;;;;;;;;;;1715740;83;21008;-72
2022/05/08 03:09:09;;;;;;;3.70;2.70;;;;;;;;;;1690726;85;21021;-72
2022/05/08 03:11:36;;;;;;;6.50;2.62;;;;;;;;;;1707680;83;21037;-72
2022/05/08 03:14:04;;;;;;;2.98;2.35;;;;;;;;;;1719800;83;21108;-72
2022/05/08 03:16:31;;;;;;;3.98;2.72;;;;;;;;;;1720100;83;21096;-73
2022/05/08 03:18:57;;;;;;;3.85;2.50;;;;;;;;;;1719934;83;21516;-71
2022/05/08 03:21:23;;;;;;;5.00;2.60;;;;;;;;;;1720014;83;21560;-73
2022/05/08 03:23:51;;;;;;;6.28;2.80;;;;;;;;;;1711357;83;21020;-73
2022/05/08 03:26:19;;;;;;;5.05;2.70;;;;;;;;;;1690381;85;21032;-73
2022/05/08 03:28:45;;;;;;;5.28;2.87;;;;;;;;;;1691073;85;21112;-73
2022/05/08 03:31:11;;;;;;;5.10;2.58;;;;;;;;;;1691177;84;21047;-74
2022/05/08 03:33:38;;;;;;;5.78;2.95;;;;;;;;;;1690934;85;21119;-73
2022/05/08 03:36:05;;;;;;;8.35;3.02;;;;;;;;;;1698882;83;21168;-74
2022/05/08 03:38:33;;;;;;;5.03;2.90;;;;;;;;;;1714698;83;21109;-74
2022/05/08 03:40:59;;;;;;;4.58;2.80;;;;;;;;;;1719855;83;21054;-74
2022/05/08 03:43:25;;;;;;;5.65;2.83;;;;;;;;;;1719987;83;21082;-74
2022/05/08 03:45:51;;;;;;;4.20;2.77;;;;;;;;;;1719983;83;21094;-74
2022/05/08 03:48:18;;;;;;;5.20;3.05;;;;;;;;;;1719784;83;21550;-72
2022/05/08 03:50:44;;;;;;;7.22;2.95;;;;;;;;;;1719811;83;21065;-73
2022/05/08 03:53:10;;;;;;;3.77;2.60;;;;;;;;;;1720152;83;21033;-73
2022/05/08 03:55:36;;;;;;;4.67;3.12;;;;;;;;;;1719989;83;21013;-73
2022/05/08 03:58:02;;;;;;;4.55;2.60;;;;;;;;;;1720023;83;21095;-73
2022/05/08 04:00:29;;;;;;;6.08;2.60;;;;;;;;;;1719804;83;21045;-73
2022/05/08 04:02:55;;;;;;;6.22;2.55;;;;;;;;;;1719672;83;21535;-74
2022/05/08 04:05:23;;;;;;;6.37;3.35;;;;;;;;;;1719743;83;22030;-74
2022/05/08 04:07:49;;;;;;;6.05;3.10;;;;;;;;;;1720038;83;21544;-73
2022/05/08 04:10:15;;;;;;;5.70;3.70;;;;;;;;;;1719961;83;21060;-73
2022/05/08 04:12:44;;;;;;;6.20;3.30;;;;;;;;;;1713027;83;21015;-75
2022/05/08 04:17:57;;;;;;;4.30;3.33;;;;;;;;;;1719766;83;21587;-73
2022/05/08 04:20:23;;;;;;;4.53;3.45;;;;;;;;;;1719810;83;21043;-75
2022/05/08 04:25:33;;;;;;;9.93;3.60;;;;;;;;;;1719907;83;21065;-76
2022/05/08 04:27:59;;;;;;;4.85;3.20;;;;;;;;;;1703548;83;21036;-74
2022/05/08 04:30:25;;;;;;;5.75;3.58;;;;;;;;;;1708251;83;21631;-75
2022/05/08 04:32:52;;;;;;;5.00;3.37;;;;;;;;;;1719820;83;21021;-75
2022/05/08 04:35:19;;;;;;;6.67;3.30;;;;;;;;;;1720185;83;21020;-75
2022/05/08 04:37:48;;;;;;;7.62;3.60;;;;;;;;;;1719779;83;21076;-76
2022/05/08 04:40:14;;;;;;;6.35;3.62;;;;;;;;;;1720067;83;21024;-76
2022/05/08 04:42:41;;;;;;;6.40;3.50;;;;;;;;;;1719958;83;21563;-75
2022/05/08 04:45:07;;;;;;;6.40;3.45;;;;;;;;;;1720121;83;21113;-77
2022/05/08 04:47:33;;;;;;;6.60;3.80;;;;;;;;;;1719241;83;21028;-77
2022/05/08 04:49:59;;;;;;;4.80;2.95;;;;;;;;;;1720098;83;21005;-77
2022/05/08 04:52:27;;;;;;;6.37;3.60;;;;;;;;;;1719948;83;21068;-78
2022/05/08 04:54:53;;;;;;;7.28;3.65;;;;;;;;;;1719996;83;21044;-77
2022/05/08 04:57:19;;;;;;;6.25;3.52;;;;;;;;;;1720296;83;21585;-77
2022/05/08 04:59:46;;;;;;;4.70;3.25;;;;;;;;;;1719758;83;21001;-83
2022/05/08 05:02:13;;;;;;;5.83;3.55;;;;;;;;;;1720121;83;21091;-84
2022/05/08 05:04:39;;;;;;;4.97;3.52;;;;;;;;;;1719957;82;21088;-82
2022/05/08 05:07:05;;;;;;;4.90;3.22;;;;;;;;;;1722215;83;21074;-82
2022/05/08 05:09:31;;;;;;;7.55;4.05;;;;;;;;;;1722865;83;21042;-82
2022/05/08 05:12:00;;;;;;;5.25;3.42;;;;;;;;;;1722523;83;20999;-82
2022/05/08 05:14:26;;;;;;;6.78;3.70;;;;;;;;;;1722790;83;21038;-83
2022/05/08 05:16:53;;;;;;;8.73;3.72;;;;;;;;;;1700228;83;21008;-83
2022/05/08 05:19:19;;;;;;;17.07;4.30;;;;;;;;;;1722720;83;21377;-83
2022/05/08 05:21:47;;;;;;;8.20;4.10;;;;;;;;;;1722637;83;21039;-82
2022/05/08 05:24:14;;;;;;;8.20;3.70;;;;;;;;;;1722574;83;21129;-82
2022/05/08 05:26:40;;;;;;;8.60;3.90;;;;;;;;;;1722697;83;21500;-82
2022/05/08 05:29:08;;;;;;;6.67;3.65;;;;;;;;;;1722596;83;21113;-82
2022/05/08 05:31:35;;;;;;;6.28;3.60;;;;;;;;;;1722801;83;21046;-83
2022/05/08 05:34:02;;;;;;;5.05;3.70;;;;;;;;;;1722720;83;21861;-85
2022/05/08 05:36:28;;;;;;;11.12;4.10;;;;;;;;;;1722902;83;21486;-85
2022/05/08 05:38:55;;;;;;;7.42;3.75;;;;;;;;;;1722536;83;21114;-84
2022/05/08 05:41:21;;;;;;;8.50;4.03;;;;;;;;;;1710947;83;21150;-81
2022/05/08 05:43:47;;;;;;;9.43;4.28;;;;;;;;;;1701275;83;21550;-81
2022/05/08 05:48:58;;;;;;;9.78;4.10;;;;;;;;;;1722067;83;21015;-80
2022/05/08 05:51:24;;;;;;;7.28;3.90;;;;;;;;;;1722794;83;21039;-71
2022/05/08 05:53:50;;;;;;;7.87;3.60;;;;;;;;;;1722597;83;21534;-72
2022/05/08 05:56:16;;;;;;;49.65;6.53;;;;;;;;;;1722616;83;21510;-72
2022/05/08 05:58:42;;;;;;;6.92;3.60;;;;;;;;;;1722746;83;21009;-72
2022/05/08 06:01:08;;;;;;;5.55;3.75;;;;;;;;;;1722751;83;21084;-76
2022/05/08 06:03:35;;;;;;;6.28;3.80;;;;;;;;;;1700714;83;21163;-75
2022/05/08 06:06:01;;;;;;;5.45;3.70;;;;;;;;;;1691165;85;21556;-76
2022/05/08 06:08:27;;;;;;;5.75;4.25;;;;;;;;;;1722936;83;21015;-75
2022/05/08 06:10:52;;;;;;;7.50;3.52;;;;;;;;;;1726313;83;20995;-76
2022/05/08 06:13:18;;;;;;;25.57;4.97;;;;;;;;;;1726245;83;21004;-75
2022/05/08 06:15:45;;;;;;;10.75;3.90;;;;;;;;;;1725883;83;21071;-75
2022/05/08 06:18:11;;;;;;;7.22;4.30;;;;;;;;;;1726197;83;21061;-76
2022/05/08 06:20:38;;;;;;;5.75;3.95;;;;;;;;;;1725793;83;21017;-75
2022/05/08 06:23:04;;;;;;;7.22;4.03;;;;;;;;;;1726275;83;21044;-75
2022/05/08 06:25:31;;;;;;;8.73;4.15;;;;;;;;;;1726154;83;21085;-76
2022/05/08 06:27:57;;;;;;;8.43;4.30;;;;;;;;;;1726224;83;21800;-75
2022/05/08 06:30:23;;;;;;;6.00;4.20;;;;;;;;;;1726203;83;21024;-76
2022/05/08 06:32:50;;;;;;;7.05;4.28;;;;;;;;;;1726067;83;21035;-75
2022/05/08 06:35:16;;;;;;;7.17;4.03;;;;;;;;;;1726057;83;21038;-74
2022/05/08 06:37:42;;;;;;;8.20;4.15;;;;;;;;;;1726139;83;20987;-74
2022/05/08 06:40:08;;;;;;;7.28;3.83;;;;;;;;;;1726081;83;21587;-74
2022/05/08 06:42:35;;;;;;;8.65;4.50;;;;;;;;;;1726023;83;21539;-74
2022/05/08 06:45:02;;;;;;;8.00;4.10;;;;;;;;;;1726252;83;21127;-73
2022/05/08 06:47:28;;;;;;;7.50;3.92;;;;;;;;;;1726127;83;20968;-75
2022/05/08 06:49:54;;;;;;;7.55;4.08;;;;;;;;;;1726269;83;21044;-76
2022/05/08 06:52:20;;;;;;;9.38;4.45;;;;;;;;;;1726358;83;21025;-73
2022/05/08 06:54:47;;;;;;;7.42;4.87;;;;;;;;;;1725992;83;21060;-74
2022/05/08 06:57:13;;;;;;;6.08;3.67;;;;;;;;;;1726289;83;21539;-74
2022/05/08 07:02:23;;;;;;;5.87;4.17;;;;;;;;;;1726236;83;21100;-75
2022/05/08 07:04:49;;;;;;;5.95;3.90;;;;;;;;;;1724585;82;21064;-76
2022/05/08 07:07:16;;;;;;;5.85;4.37;;;;;;;;;;1724508;82;21057;-76
2022/05/08 07:09:42;;;;;;;6.33;4.00;;;;;;;;;;1722642;82;21001;-76
2022/05/08 07:12:09;;;;;;;13.28;4.30;;;;;;;;;;1732631;82;20983;-76
2022/05/08 07:14:35;;;;;;;8.25;4.30;;;;;;;;;;1736806;82;21017;-77
2022/05/08 07:17:02;;;;;;;8.75;4.03;;;;;;;;;;1743942;82;21095;-75
2022/05/08 07:19:28;;;;;;;5.92;4.10;;;;;;;;;;1743542;82;21108;-75
2022/05/08 07:21:54;;;;;;;5.95;4.12;;;;;;;;;;1745219;82;21043;-74
2022/05/08 07:24:20;;;;;;;9.75;5.22;;;;;;;;;;1745799;82;21072;-74
2022/05/08 07:26:47;;;;;;;8.88;4.45;;;;;;;;;;1731918;82;21480;-77
2022/05/08 07:29:13;;;;;;;7.65;4.12;;;;;;;;;;1710104;84;21011;-77
2022/05/08 07:31:42;;;;;;;5.95;3.92;;;;;;;;;;1729610;82;21578;-76
2022/05/08 07:36:52;;;;;;;8.00;4.55;;;;;;;;;;1726664;82;21019;-76
2022/05/08 07:39:18;;;;;;;10.32;5.33;;;;;;;;;;1722866;83;21495;-76
2022/05/08 07:41:45;;;;;;;9.43;5.37;;;;;;;;;;1722623;83;21093;-77
2022/05/08 07:44:11;;;;;;;8.28;4.87;;;;;;;;;;1722959;83;20988;-76
2022/05/08 07:46:38;;;;;;;12.10;5.00;;;;;;;;;;1741556;82;21013;-76
2022/05/08 07:49:04;;;;;;;7.78;4.28;;;;;;;;;;1709950;84;21019;-77
2022/05/08 07:51:30;;;;;;;11.20;4.83;;;;;;;;;;1745748;82;21073;-77
2022/05/08 07:53:58;;;;;;;8.18;4.83;;;;;;;;;;1745681;82;21008;-76
2022/05/08 07:56:24;;;;;;;9.28;5.45;;;;;;;;;;1710063;84;20952;-76
2022/05/08 07:58:50;;;;;;;6.85;4.37;;;;;;;;;;1709983;84;21511;-77
2022/05/08 08:01:16;;;;;;;7.40;3.92;;;;;;;;;;1710150;84;21007;-77
2022/05/08 08:03:42;;;;;;;7.25;4.25;;;;;;;;;;1710094;82;21059;-75
2022/05/08 08:06:08;;;;;;;6.17;4.20;;;;;;;;;;1710169;83;21071;-75
2022/05/08 08:08:35;;;;;;;7.37;4.42;;;;;;;;;;1710086;84;21504;-77
2022/05/08 08:11:04;;;;;;;7.85;4.67;;;;;;;;;;1710013;84;21023;-77
2022/05/08 08:13:31;;;;;;;7.12;4.33;;;;;;;;;;1710196;84;21000;-77
2022/05/08 08:16:00;;;;;;;6.55;4.20;;;;;;;;;;1710224;84;21032;-77
2022/05/08 08:18:26;;;;;;;8.50;4.30;;;;;;;;;;1710300;84;21464;-78
2022/05/08 08:20:53;;;;;;;6.67;4.47;;;;;;;;;;1710194;84;21077;-75
2022/05/08 08:23:19;;;;;;;8.88;4.65;;;;;;;;;;1709957;84;21058;-76
2022/05/08 08:25:45;;;;;;;10.48;4.40;;;;;;;;;;1710241;84;21524;-78
2022/05/08 08:28:11;;;;;;;29.67;5.83;;;;;;;;;;1709932;84;21031;-79
2022/05/08 08:30:37;;;;;;;12.58;4.72;;;;;;;;;;1709964;84;21045;-79
2022/05/08 08:33:03;;;;;;;5.58;4.10;;;;;;;;;;1735365;82;20991;-78
2022/05/08 08:35:30;;;;;;;6.00;4.28;;;;;;;;;;1736020;82;21441;-79
2022/05/08 08:37:57;;;;;;;6.03;4.00;;;;;;;;;;1741318;82;21076;-78
2022/05/08 08:40:23;;;;;;;9.65;4.78;;;;;;;;;;1745686;82;21060;-75
2022/05/08 08:42:50;;;;;;;9.15;4.60;;;;;;;;;;1709989;84;21008;-75
2022/05/08 08:48:05;;;;;;;10.38;4.40;;;;;;;;;;1706512;84;21059;-75
2022/05/08 08:50:33;;;;;;;6.50;4.12;;;;;;;;;;1709661;84;21006;-74
2022/05/08 08:53:00;;;;;;;9.18;4.00;;;;;;;;;;1730494;82;20999;-75
2022/05/08 08:55:26;;;;;;;7.50;4.20;;;;;;;;;;1722685;83;21643;-75
2022/05/08 08:57:52;;;;;;;6.55;4.10;;;;;;;;;;1723322;82;21018;-75
2022/05/08 09:00:19;;;;;;;7.03;3.90;;;;;;;;;;1730507;82;21006;-75
2022/05/08 09:02:47;;;;;;;6.65;4.33;;;;;;;;;;1742047;82;21588;-74
2022/05/08 09:05:13;;;;;;;6.85;4.20;;;;;;;;;;1708846;84;21103;-78
2022/05/08 09:07:46;;;;;;;8.50;4.22;;;;;;;;;;1697635;83;21029;-82
2022/05/08 09:10:18;;;;;;;7.60;3.98;;;;;;;;;;1701289;84;21066;-83
2022/05/08 09:12:46;;;;;;;6.67;4.33;;;;;;;;;;1701685;84;21052;-82
2022/05/08 09:15:22;;;;;;;11.18;4.50;;;;;;;;;;1669209;84;21048;-83
2022/05/08 09:17:53;;;;;;;9.58;4.80;;;;;;;;;;1701261;84;21008;-83
2022/05/08 09:20:33;;;;;;;7.55;4.40;;;;;;;;;;1701407;84;21028;-83
2022/05/08 09:23:09;;;;;;;6.83;4.60;;;;;;;;;;1701198;84;21841;-83
2022/05/08 09:25:54;;;;;;;7.10;4.20;;;;;;;;;;1702084;84;21056;-83
2022/05/08 09:28:25;;;;;;;6.33;4.35;;;;;;;;;;1703365;84;21124;-83
2022/05/08 09:31:02;;;;;;;7.00;4.05;;;;;;;;;;1704558;84;21001;-83
2022/05/08 09:33:32;;;;;;;15.23;4.60;;;;;;;;;;1703739;84;21094;-81
2022/05/08 09:35:59;;;;;;;10.20;4.40;;;;;;;;;;1703748;84;21032;-84
2022/05/08 09:38:43;;;;;;;6.28;4.40;;;;;;;;;;1703753;84;21077;-84
2022/05/08 09:41:10;;;;;;;7.15;4.30;;;;;;;;;;1703755;84;21067;-83
2022/05/08 09:43:37;;;;;;;5.92;4.30;;;;;;;;;;1704523;84;21539;-82
2022/05/08 09:46:04;;;;;;;8.03;4.35;;;;;;;;;;1704346;84;21067;-82
2022/05/08 09:48:31;;;;;;;7.87;4.55;;;;;;;;;;1704099;84;21020;-80
2022/05/08 09:50:58;;;;;;;8.63;4.17;;;;;;;;;;1703709;84;21071;-85
2022/05/08 09:53:24;;;;;;;7.70;4.60;;;;;;;;;;1705370;82;21008;-83
2022/05/08 09:55:52;;;;;;;7.80;5.08;;;;;;;;;;1705731;82;21069;-83
2022/05/08 09:58:19;;;;;;;7.55;4.75;;;;;;;;;;1703346;81;21033;-80
2022/05/08 10:00:45;;;;;;;5.92;4.37;;;;;;;;;;1705678;82;21005;-82
2022/05/08 10:03:11;;;;;;;8.55;4.87;;;;;;;;;;1705618;81;21047;-79
2022/05/08 10:05:37;;;;;;;7.47;4.53;;;;;;;;;;1705449;82;20981;-79
2022/05/08 10:08:05;;;;;;;7.72;4.12;;;;;;;;;;1697677;81;21036;-81
2022/05/08 10:18:45;;;;;;;7.45;4.50;;;;;;;;;;1822774;79;22899;-79
2022/05/08 10:21:13;;;;;;;9.83;4.60;;;;;;;;;;1795609;80;21039;-80
2022/05/08 10:23:40;;;;;;;6.28;3.87;;;;;;;;;;1796150;80;21086;-80
2022/05/08 10:26:10;;;;;;;7.17;5.00;;;;;;;;;;1795155;80;20989;-80
2022/05/08 10:28:38;;;;;;;7.62;4.80;;;;;;;;;;1791840;80;21032;-78
2022/05/08 10:31:09;;;;;;;6.55;4.55;;;;;;;;;;1792166;80;21023;-80
2022/05/08 10:33:54;;;;;;;13.55;5.40;;;;;;;;;;1787413;80;21546;-80
2022/05/08 10:36:20;;;;;;;7.12;5.03;;;;;;;;;;1794088;80;21101;-80
2022/05/08 10:38:46;;;;;;;8.40;4.83;;;;;;;;;;1793422;80;21559;-80
2022/05/08 10:41:32;;;;;;;7.20;4.53;;;;;;;;;;1793501;80;21000;-81
2022/05/08 10:44:18;;;;;;;6.08;4.35;;;;;;;;;;1793236;80;21009;-80
2022/05/08 10:46:45;;;;;;;7.87;4.47;;;;;;;;;;1793179;80;21500;-80
2022/05/08 10:49:11;;;;;;;8.28;4.20;;;;;;;;;;1792861;80;20993;-79
2022/05/08 10:51:39;;;;;;;6.87;4.20;;;;;;;;;;1793194;80;21084;-80
2022/05/08 10:54:10;;;;;;;5.80;3.83;;;;;;;;;;1793445;80;21024;-78
2022/05/08 10:56:46;;;;;;;8.38;4.10;;;;;;;;;;1793075;80;21094;-79
2022/05/08 10:59:12;;;;;;;7.28;5.37;;;;;;;;;;1793407;80;21564;-81
2022/05/08 11:01:40;;;;;;;10.30;5.35;;;;;;;;;;1793096;80;21572;-80
2022/05/08 11:04:10;;;;;;;10.38;5.37;;;;;;;;;;1762878;80;21634;-80
2022/05/08 11:06:36;;;;;;;6.78;4.60;;;;;;;;;;1793198;80;21008;-80
2022/05/08 11:09:03;;;;;;;8.75;5.42;;;;;;;;;;1793191;80;21535;-80
2022/05/08 11:11:30;;;;;;;9.45;6.30;;;;;;;;;;1793301;80;21115;-79
2022/05/08 11:13:56;;;;;;;8.40;4.90;;;;;;;;;;1793129;80;21012;-80
2022/05/08 11:16:36;;;;;;;18.87;5.37;;;;;;;;;;1793000;80;22096;-79
2022/05/08 11:19:03;;;;;;;6.72;4.80;;;;;;;;;;1793340;80;21009;-79
2022/05/08 11:21:30;;;;;;;6.20;4.50;;;;;;;;;;1793192;80;20992;-79
2022/05/08 11:23:56;;;;;;;14.20;7.03;;;;;;;;;;1792961;80;21028;-79
2022/05/08 11:26:29;;;;;;;13.18;5.62;;;;;;;;;;1792945;80;21076;-79
2022/05/08 11:28:57;;;;;;;6.72;4.90;;;;;;;;;;1793035;80;21079;-79
2022/05/08 11:31:28;;;;;;;9.88;6.45;;;;;;;;;;1792376;80;21049;-78
2022/05/08 11:36:39;;;;;;;6.83;4.92;;;;;;;;;;1792452;80;21584;-79
2022/05/08 11:39:07;;;;;;;6.17;5.03;;;;;;;;;;1792797;80;21103;-80
2022/05/08 11:41:42;;;;;;;11.63;7.45;;;;;;;;;;1792204;79;21118;-79
2022/05/08 11:44:15;;;;;;;9.53;6.37;;;;;;;;;;1792620;80;21511;-79
2022/05/08 11:46:46;;;;;;;8.03;5.78;;;;;;;;;;1792324;80;21021;-78
2022/05/08 11:49:17;;;;;;;8.68;4.90;;;;;;;;;;1792675;80;21493;-79
2022/05/08 11:51:44;;;;;;;5.15;4.53;;;;;;;;;;1792650;80;21544;-79
2022/05/08 11:54:17;;;;;;;10.18;4.97;;;;;;;;;;1792720;80;21040;-79
2022/05/08 11:56:44;;;;;;;13.08;4.72;;;;;;;;;;1792758;80;21044;-78
2022/05/08 11:59:17;;;;;;;94.92;11.65;;;;;;;;;;1792695;79;21564;-78
2022/05/08 12:01:49;;;;;;;8.03;4.97;;;;;;;;;;1792558;80;21021;-77
2022/05/08 12:04:22;;;;;;;5.03;4.10;;;;;;;;;;1791633;80;21087;-77
2022/05/08 12:06:58;;;;;;;8.53;5.80;;;;;;;;;;1792533;80;21000;-79
2022/05/08 12:09:24;;;;;;;7.40;4.53;;;;;;;;;;1792336;80;21544;-79
2022/05/08 12:11:50;;;;;;;6.47;4.55;;;;;;;;;;1792574;80;21028;-79
2022/05/08 12:14:16;;;;;;;8.05;6.70;;;;;;;;;;1792206;80;21036;-78
2022/05/08 12:16:45;;;;;;;10.53;7.22;;;;;;;;;;1792440;80;21020;-78
2022/05/08 12:19:11;;;;;;;12.85;5.12;;;;;;;;;;1784296;80;21084;-77
2022/05/08 12:21:39;;;;;;;8.78;5.12;;;;;;;;;;1784772;80;21029;-78
2022/05/08 12:24:09;;;;;;;8.48;5.65;;;;;;;;;;1784590;80;21068;-78
2022/05/08 12:26:35;;;;;;;10.55;5.10;;;;;;;;;;1784755;80;21060;-78
2022/05/08 12:29:02;;;;;;;11.18;7.03;;;;;;;;;;1784710;80;21057;-78
2022/05/08 12:31:28;;;;;;;11.18;6.50;;;;;;;;;;1784492;80;21033;-78
2022/05/08 12:33:55;;;;;;;10.32;6.35;;;;;;;;;;1784722;80;21111;-78
2022/05/08 12:36:21;;;;;;;17.75;8.68;;;;;;;;;;1784561;80;21005;-77
2022/05/08 12:38:47;;;;;;;9.58;6.45;;;;;;;;;;1784868;80;21492;-78
2022/05/08 12:41:13;;;;;;;10.70;6.80;;;;;;;;;;1784624;80;21092;-78
2022/05/08 12:43:39;;;;;;;6.47;5.10;;;;;;;;;;1784851;80;21052;-78
2022/05/08 12:46:05;;;;;;;10.20;5.08;;;;;;;;;;1784572;80;21539;-78
2022/05/08 12:48:32;;;;;;;5.83;4.28;;;;;;;;;;1784938;80;21055;-78
2022/05/08 12:50:58;;;;;;;6.85;5.20;;;;;;;;;;1784532;80;21112;-78
2022/05/08 12:53:24;;;;;;;106.95;13.45;;;;;;;;;;1784785;80;22117;-77
2022/05/08 12:55:51;;;;;;;9.00;5.90;;;;;;;;;;1784604;80;21024;-77
2022/05/08 13:01:04;;;;;;;11.35;7.58;;;;;;;;;;1784519;80;21111;-77
2022/05/08 13:03:30;;;;;;;9.55;5.90;;;;;;;;;;1784668;80;21123;-77
2022/05/08 13:05:56;;;;;;;7.37;3.92;;;;;;;;;;1784600;80;21068;-78
2022/05/08 13:08:25;;;;;;;8.10;4.22;;;;;;;;;;1784709;80;21068;-78
2022/05/08 13:10:52;;;;;;;8.98;4.25;;;;;;;;;;1784976;80;21061;-78
2022/05/08 13:13:20;;;;;;;8.85;4.05;;;;;;;;;;1784253;80;21121;-78
2022/05/08 13:15:46;;;;;;;9.90;6.30;;;;;;;;;;1784852;80;21096;-78
2022/05/08 13:18:12;;;;;;;12.18;6.78;;;;;;;;;;1784501;80;21547;-78
2022/05/08 13:20:40;;;;;;;12.63;8.55;;;;;;;;;;1784854;80;21045;-78
2022/05/08 13:23:07;;;;;;;12.13;7.35;;;;;;;;;;1784625;80;21088;-77
2022/05/08 13:25:34;;;;;;;9.53;7.30;;;;;;;;;;1784873;80;21068;-77
2022/05/08 13:28:00;;;;;;;9.10;6.25;;;;;;;;;;1784471;80;21567;-78
2022/05/08 13:30:28;;;;;;;14.95;7.53;;;;;;;;;;1784722;80;21080;-78
2022/05/08 13:32:54;;;;;;;10.35;6.72;;;;;;;;;;1784576;80;21044;-79
2022/05/08 13:35:20;;;;;;;12.37;7.12;;;;;;;;;;1784727;80;21013;-80
2022/05/08 13:37:48;;;;;;;10.75;7.55;;;;;;;;;;1784392;80;21045;-77
2022/05/08 13:40:15;;;;;;;15.32;8.73;;;;;;;;;;1784539;80;21096;-76
2022/05/08 13:42:41;;;;;;;12.18;8.00;;;;;;;;;;1784760;80;21036;-77
2022/05/08 13:45:12;;;;;;;13.43;8.78;;;;;;;;;;1784453;80;21002;-78
2022/05/08 13:47:38;;;;;;;15.03;9.63;;;;;;;;;;1784728;80;21059;-78
2022/05/08 13:50:06;;;;;;;12.20;8.20;;;;;;;;;;1784665;80;21127;-77
2022/05/08 13:52:33;;;;;;;14.78;10.43;;;;;;;;;;1784981;80;21075;-77
2022/05/08 13:54:59;;;;;;;18.55;10.25;;;;;;;;;;1784846;80;21065;-77
2022/05/08 13:57:25;;;;;;;22.35;12.15;;;;;;;;;;1784509;80;21071;-77
2022/05/08 13:59:53;;;;;;;17.77;11.45;;;;;;;;;;1784741;80;21029;-76
2022/05/08 14:02:20;;;;;;;16.15;10.70;;;;;;;;;;1784485;80;21111;-77
2022/05/08 14:04:47;;;;;;;17.12;11.20;;;;;;;;;;1784733;80;21045;-77
2022/05/08 14:07:14;;;;;;;16.32;9.95;;;;;;;;;;1784431;80;21049;-76
2022/05/08 14:09:40;;;;;;;15.10;10.05;;;;;;;;;;1784751;80;21048;-78
2022/05/08 14:12:07;;;;;;;13.38;9.93;;;;;;;;;;1784608;80;21092;-77
2022/05/08 14:14:33;;;;;;;15.58;8.70;;;;;;;;;;1784844;80;21516;-76
2022/05/08 14:17:00;;;;;;;17.00;11.45;;;;;;;;;;1784435;80;21526;-75
2022/05/08 14:19:29;;;;;;;15.93;11.38;;;;;;;;;;1779648;80;21073;-77
2022/05/08 14:21:55;;;;;;;17.52;12.35;;;;;;;;;;1778652;81;21072;-77
2022/05/08 14:24:21;;;;;;;16.35;10.82;;;;;;;;;;1779052;81;21108;-77
2022/05/08 14:26:47;;;;;;;16.95;11.43;;;;;;;;;;1778637;81;21041;-76
2022/05/08 14:29:13;;;;;;;15.68;10.95;;;;;;;;;;1779000;81;21584;-77
2022/05/08 14:37:09;;;;;;;13.85;9.63;;;;;;;;;;1778617;81;21084;-76
2022/05/08 14:39:36;;;;;;;15.32;10.95;;;;;;;;;;1779074;81;21069;-77
2022/05/08 14:42:02;;;;;;;19.35;10.78;;;;;;;;;;1758909;81;21031;-75
2022/05/08 14:44:29;;;;;;;12.73;8.53;;;;;;;;;;1770635;81;21095;-74
2022/05/08 14:46:56;;;;;;;14.18;9.30;;;;;;;;;;1767595;81;21015;-70
2022/05/08 14:49:22;;;;;;;12.53;9.08;;;;;;;;;;1759906;81;21064;-71
2022/05/08 14:51:48;;;;;;;14.65;9.00;;;;;;;;;;1773233;81;21018;-71
2022/05/08 14:54:14;;;;;;;11.78;8.15;;;;;;;;;;1757765;81;21041;-70
2022/05/08 14:56:40;;;;;;;13.15;7.95;;;;;;;;;;1764461;81;21018;-71
2022/05/08 14:59:06;;;;;;;12.13;8.93;;;;;;;;;;1748091;82;21071;-71
2022/05/08 15:01:32;;;;;;;12.82;7.97;;;;;;;;;;1758106;81;21048;-71
2022/05/08 15:03:58;;;;;;;12.03;8.70;;;;;;;;;;1778648;81;21607;-71
2022/05/08 15:06:24;;;;;;;11.63;8.00;;;;;;;;;;1756896;81;21488;-71
2022/05/08 15:08:51;;;;;;;11.53;7.72;;;;;;;;;;1778962;81;21544;-72
2022/05/08 15:11:19;;;;;;;11.10;7.47;;;;;;;;;;1779188;80;21169;-72
2022/05/08 15:13:46;;;;;;;12.00;8.20;;;;;;;;;;1778186;81;21521;-71
2022/05/08 15:16:12;;;;;;;11.75;7.20;;;;;;;;;;1777499;81;21040;-72
2022/05/08 15:18:50;;;;;;;12.03;7.42;;;;;;;;;;1780250;80;21049;-71
2022/05/08 15:21:16;;;;;;;12.47;7.25;;;;;;;;;;1785344;80;21036;-71
2022/05/08 15:23:42;;;;;;;13.30;8.43;;;;;;;;;;1785295;80;21088;-72